Flight Track Log - Related Links

Times and Time Zones

All times are in EDT time to prevent confusion due to time zone crossing. See the AAL1209 flight status page for this flight to view local times or setup timezone preferences in your user account.


Time Position Orientation Groundspeed Altitude Reporting Facility
EDT Latitude Longitude Course Direction KTS MPH feet Rate Location/Type
Fri 10:55:15 AM 32.8724 -97.0361 204° Southwest  Level FlightAware Approximate
Fri 10:56:15 AM 32.7756 -97.0667 North  Level FlightAware Approximate
Fri 10:57:06 AM 32.8289 -97.0589 200° South 201 231 3,100  Level FAA TRACON SMA TRACON (SMA)
Fri 10:57:43 AM 32.7936 -97.0739 227° Southwest 221 254 4,400 2,240 Climbing FAA TRACON SMA TRACON (SMA)
Fri 10:58:21 AM 32.7700 -97.1044 264° West 223 257 5,900 2,154 Climbing FAA TRACON SMA TRACON (SMA)
Fri 10:59:01 AM 32.7650 -97.1572 274° West 236 272 7,200 1,976 Climbing FAA TRACON SMA TRACON (SMA)
Fri 10:59:43 AM 32.7686 -97.2158 286° West 258 297 8,600 1,829 Climbing FAA TRACON SMA TRACON (SMA)
Fri 11:00:23 AM 32.7811 -97.2683 299° West 274 315 9,700 1,500 Climbing FAA TRACON SMA TRACON (SMA)
Fri 11:01:03 AM 32.8092 -97.3278 296° West 299 344 10,600 1,425 Climbing FAA TRACON SMA TRACON (SMA)
Fri 11:01:43 AM 32.8369 -97.3967 297° West 335 386 11,600 1,650 Climbing FAA TRACON SMA TRACON (SMA)
Fri 11:02:23 AM 32.8647 -97.4617 298° West 357 411 12,800 2,025 Climbing FAA TRACON SMA TRACON (SMA)
Fri 11:03:03 AM 32.8978 -97.5350 296° West 365 420 14,300 2,100 Climbing FAA TRACON SMA TRACON (SMA)
Fri 11:03:43 AM 32.9300 -97.6125 297° West 379 436 15,600 2,429 Climbing FAA TRACON SMA TRACON (SMA)
Fri 11:04:27 AM 32.9628 -97.6889 289° West 373 429 17,700 2,640 Climbing FAA TRACON SMA TRACON (SMA)
Fri 11:05:23 AM 32.9922 -97.7900 280° West 347 399 20,000 2,250 Climbing FAA TRACON SMA TRACON (SMA)
Fri 11:06:03 AM 33.0042 -97.8692 281° West 351 404 21,300 1,575 Climbing FAA TRACON SMA TRACON (SMA)
Fri 11:06:43 AM 33.0156 -97.9386 280° West 348 400 22,100 1,125 Climbing FAA TRACON SMA TRACON (SMA)
Fri 11:07:23 AM 33.0278 -98.0206 281° West 365 420 22,800 1,200 Climbing FAA TRACON SMA TRACON (SMA)
Fri 11:08:03 AM 33.0414 -98.1053 280° West 377 434 23,700 1,275 Climbing FAA TRACON SMA TRACON (SMA)
Fri 11:08:43 AM 33.0528 -98.1819 278° West 382 440 24,500 1,161 Climbing FAA TRACON SMA TRACON (SMA)
Fri 11:09:36 AM 33.0661 -98.2983 281° West 391 450 25,500 1,062 Climbing Fort Worth Center
Fri 11:10:36 AM 33.0881 -98.4300 281° West 401 461 26,500 1,200 Climbing Fort Worth Center
Fri 11:11:36 AM 33.1058 -98.5442 279° West 401 461 27,900 1,500 Climbing Fort Worth Center
Fri 11:12:36 AM 33.1233 -98.6736 281° West 396 456 29,500 1,050 Climbing Fort Worth Center
Fri 11:13:36 AM 33.1431 -98.7978 281° West 390 449 30,000 250 Climbing Fort Worth Center
Fri 11:14:36 AM 33.1644 -98.9272 279° West 390 449 30,000  Level Fort Worth Center
Fri 11:15:36 AM 33.1817 -99.0567 298° West 390 449 30,000  Level Fort Worth Center
Fri 11:16:36 AM 33.2342 -99.1767 301° West 390 449 30,000  Level Fort Worth Center
Fri 11:17:36 AM 33.2911 -99.2897 299° West 390 449 30,000  Level Fort Worth Center
Fri 11:18:36 AM 33.3456 -99.4053 299° West 401 461 30,000 50 Level Fort Worth Center
Fri 11:19:36 AM 33.4000 -99.5233 299° West 401 461 30,100 650 Climbing Fort Worth Center
Fri 11:20:36 AM 33.4522 -99.6367 299° West 401 461 31,300 950 Climbing Fort Worth Center
Fri 11:21:36 AM 33.5044 -99.7478 299° West 401 461 32,000 350 Climbing Fort Worth Center
Fri 11:22:36 AM 33.5567 -99.8611 298° West 396 456 32,000  Level Fort Worth Center
Fri 11:23:36 AM 33.6067 -99.9747 299° West 396 456 32,000  Level Fort Worth Center
Fri 11:24:36 AM 33.6583 -100.0886 299° West 396 456 32,000  Level Fort Worth Center
Fri 11:25:36 AM 33.7103 -100.2000 300° West 396 456 32,000 50 Level Fort Worth Center
Fri 11:26:36 AM 33.7642 -100.3117 298° West 396 456 32,100  Climbing Fort Worth Center
Fri 11:27:36 AM 33.8136 -100.4258 298° West 396 456 32,000 -50 Descending Fort Worth Center
Fri 11:28:36 AM 33.8650 -100.5403 298° West 396 456 32,000  Level Fort Worth Center
Fri 11:29:36 AM 33.9164 -100.6547 300° West 396 456 32,000  Level Fort Worth Center
Fri 11:30:36 AM 33.9678 -100.7642 298° West 396 456 32,000  Level Fort Worth Center
Fri 11:31:36 AM 34.0169 -100.8764 298° West 390 449 32,000 29 Level Fort Worth Center
Fri 11:34:00 AM 34.1428 -101.1608 298° West 382 440 32,100  Climbing Albuquerque Center
Fri 11:35:00 AM 34.1925 -101.2753 298° West 382 440 32,000 -50 Descending Albuquerque Center
Fri 11:36:00 AM 34.2419 -101.3869 298° West 382 440 32,000 50 Level Albuquerque Center
Fri 11:37:00 AM 34.2914 -101.4992 297° West 382 440 32,100  Climbing Albuquerque Center
Fri 11:38:01 AM 34.3339 -101.5992 297° West 382 440 32,000 -50 Descending Albuquerque Center
Fri 11:39:00 AM 34.3831 -101.7142 297° West 382 440 32,000  Level Albuquerque Center
Fri 11:40:00 AM 34.4322 -101.8289 298° West 382 440 32,000 50 Level Albuquerque Center
Fri 11:41:00 AM 34.4811 -101.9392 298° West 377 434 32,100  Climbing Albuquerque Center
Fri 11:42:00 AM 34.5297 -102.0494 296° West 377 434 32,000 -50 Descending Albuquerque Center
Fri 11:43:00 AM 34.5767 -102.1647 298° West 377 434 32,000  Level Albuquerque Center
Fri 11:44:00 AM 34.6253 -102.2778 298° West 377 434 32,000  Level Albuquerque Center
Fri 11:45:01 AM 34.6739 -102.3911 297° West 377 434 32,000 50 Level Albuquerque Center
Fri 11:46:00 AM 34.7203 -102.5019 298° West 377 434 32,100  Climbing Albuquerque Center
Fri 11:47:00 AM 34.7706 -102.6153 298° West 377 434 32,000  Descending Albuquerque Center
Fri 11:48:00 AM 34.8233 -102.7386 297° West 383 441 32,100 50 Climbing Albuquerque Center
Fri 11:49:00 AM 34.8694 -102.8500 297° West 378 435 32,100  Level Albuquerque Center
Fri 11:50:00 AM 34.9175 -102.9639 298° West 378 435 32,100 -50 Level Albuquerque Center
Fri 11:51:00 AM 34.9653 -103.0753 298° West 378 435 32,000 -50 Descending Albuquerque Center
Fri 11:52:01 AM 35.0108 -103.1819 297° West 378 435 32,000 50 Level Albuquerque Center
Fri 11:53:00 AM 35.0586 -103.2986 297° West 378 435 32,100  Climbing Albuquerque Center
Fri 11:54:00 AM 35.1042 -103.4081 297° West 378 435 32,000 -50 Descending Albuquerque Center
Fri 11:55:00 AM 35.1517 -103.5203 295° West 378 435 32,000  Level Albuquerque Center
Fri 11:56:00 AM 35.1903 -103.6200 290° West 378 435 32,000  Level Albuquerque Center
Fri 11:57:00 AM 35.2250 -103.7353 292° West 373 429 32,000 50 Level Albuquerque Center
Fri 11:58:00 AM 35.2639 -103.8531 287° West 368 423 32,100  Climbing Albuquerque Center
Fri 11:59:00 AM 35.2925 -103.9714 297° West 363 418 32,000 -50 Descending Albuquerque Center
Fri 12:00:00 PM 35.3394 -104.0867 290° West 368 423 32,000  Level Albuquerque Center
Fri 12:01:00 PM 35.3761 -104.2100 291° West 374 430 32,000 50 Level Albuquerque Center
Fri 12:02:00 PM 35.4125 -104.3283 290° West 374 430 32,100  Climbing Albuquerque Center
Fri 12:03:00 PM 35.4489 -104.4494 291° West 374 430 32,000 -50 Descending Albuquerque Center
Fri 12:04:00 PM 35.4853 -104.5681 291° West 379 436 32,000  Level Albuquerque Center
Fri 12:05:00 PM 35.5214 -104.6867 290° West 379 436 32,000  Level Albuquerque Center
Fri 12:06:00 PM 35.5572 -104.8056 290° West 379 436 32,000  Level Albuquerque Center
Fri 12:07:00 PM 35.5931 -104.9244 290° West 374 430 32,000 50 Level Albuquerque Center
Fri 12:08:00 PM 35.6289 -105.0433 291° West 374 430 32,100  Climbing Albuquerque Center
Fri 12:09:01 PM 35.6667 -105.1625 290° West 374 430 32,000 -50 Descending Albuquerque Center
Fri 12:10:00 PM 35.7064 -105.2944 290° West 379 436 32,000  Level Albuquerque Center
Fri 12:11:00 PM 35.7419 -105.4164 289° West 379 436 32,000  Level Albuquerque Center
Fri 12:12:00 PM 35.7772 -105.5408 293° West 389 448 32,000  Level Albuquerque Center
Fri 12:13:00 PM 35.8122 -105.6450 289° West 384 442 32,000  Level Albuquerque Center
Fri 12:14:00 PM 35.8450 -105.7622 291° West 364 419 32,000  Level Albuquerque Center
Fri 12:15:00 PM 35.8822 -105.8844 290° West 374 430 32,000  Level Albuquerque Center
Fri 12:16:00 PM 35.9169 -106.0044 289° West 374 430 32,000  Level Albuquerque Center
Fri 12:17:00 PM 35.9494 -106.1219 290° West 369 425 32,000  Level Albuquerque Center
Fri 12:18:00 PM 35.9842 -106.2394 291° West 369 425 32,000  Level Albuquerque Center
Fri 12:19:00 PM 36.0206 -106.3597 290° West 369 425 32,000  Level Albuquerque Center
Fri 12:20:00 PM 36.0550 -106.4775 289° West 362 417 32,000 50 Level Albuquerque Center
Fri 12:21:00 PM 36.0914 -106.6106 291° West 368 423 32,100  Climbing Albuquerque Center
Fri 12:22:00 PM 36.1275 -106.7286 289° West 368 423 32,000 -34 Descending Albuquerque Center
Fri 12:23:56 PM 36.1931 -106.9686 290° West 358 412 32,000 34 Level Denver Center
Fri 12:24:56 PM 36.2236 -107.0717 289° West 364 419 32,100 50 Climbing Denver Center
Fri 12:25:56 PM 36.2603 -107.2033 289° West 369 425 32,100 -50 Level Denver Center
Fri 12:26:56 PM 36.2950 -107.3272 289° West 374 430 32,000  Descending Denver Center
Fri 12:27:56 PM 36.3253 -107.4356 288° West 374 430 32,100 50 Climbing Denver Center
Fri 12:28:56 PM 36.3575 -107.5569 288° West 374 430 32,100 -50 Level Denver Center
Fri 12:29:56 PM 36.3936 -107.6917 290° West 374 430 32,000 -50 Descending Denver Center
Fri 12:30:56 PM 36.4297 -107.8133 289° West 374 430 32,000 50 Level Denver Center
Fri 12:31:56 PM 36.4597 -107.9222 289° West 368 423 32,100  Climbing Denver Center
Fri 12:32:56 PM 36.4933 -108.0467 289° West 373 429 32,000 -50 Descending Denver Center
Fri 12:33:56 PM 36.5289 -108.1792 289° West 368 423 32,000  Level Denver Center
Fri 12:34:56 PM 36.5625 -108.3011 287° West 368 423 32,000 50 Level Denver Center
Fri 12:35:56 PM 36.5900 -108.4103 288° West 368 423 32,100  Climbing Denver Center
Fri 12:36:56 PM 36.6250 -108.5431 290° West 368 423 32,000  Descending Denver Center
Fri 12:37:56 PM 36.6603 -108.6656 288° West 368 423 32,100 50 Climbing Denver Center
Fri 12:38:56 PM 36.6911 -108.7856 288° West 368 423 32,100  Level Denver Center
Fri 12:39:56 PM 36.7200 -108.8978 287° West 368 423 32,100 -50 Level Denver Center
Fri 12:40:56 PM 36.7525 -109.0308 288° West 368 423 32,000 -50 Descending Denver Center
Fri 12:41:56 PM 36.7853 -109.1539 288° West 368 423 32,000 50 Level Denver Center
Fri 12:42:56 PM 36.8139 -109.2636 288° West 368 423 32,100 50 Climbing Denver Center
Fri 12:43:56 PM 36.8500 -109.4000 288° West 368 423 32,100 -50 Level Denver Center
Fri 12:44:56 PM 36.8803 -109.5178 286° West 368 423 32,000 -50 Descending Denver Center
Fri 12:45:56 PM 36.9100 -109.6436 289° West 368 423 32,000 50 Level Denver Center
Fri 12:46:56 PM 36.9383 -109.7486 286° West 368 423 32,100  Climbing Denver Center
Fri 12:47:56 PM 36.9697 -109.8825 288° West 368 423 32,000  Descending Denver Center
Fri 12:48:56 PM 37.0014 -110.0036 292° West 368 423 32,100  Climbing Denver Center
Fri 12:49:56 PM 37.0394 -110.1225 289° West 368 423 32,000  Descending Denver Center
Fri 12:50:56 PM 37.0675 -110.2228 290° West 363 418 32,100 50 Climbing Denver Center
Fri 12:51:56 PM 37.1031 -110.3442 292° West 363 418 32,100 -50 Level Denver Center
Fri 12:52:56 PM 37.1406 -110.4608 290° West 363 418 32,000  Descending Denver Center
Fri 12:53:56 PM 37.1758 -110.5825 293° West 368 423 32,100  Climbing Denver Center
Fri 12:54:56 PM 37.2153 -110.7019 290° West 368 423 32,000  Descending Denver Center
Fri 12:55:56 PM 37.2503 -110.8239 292° West 373 429 32,100  Climbing Denver Center
Fri 12:56:56 PM 37.2931 -110.9569 289° West 373 429 32,000 -50 Descending Denver Center
Fri 12:57:56 PM 37.3258 -111.0764 291° West 373 429 32,000 40 Level Denver Center
Fri 12:59:26 PM 37.3786 -111.2475 291° West 371 427 32,100 39 Climbing Salt Lake Center
Fri 01:00:28 PM 37.4161 -111.3725 290° West 374 430 32,100 -48 Level Salt Lake Center
Fri 01:01:30 PM 37.4536 -111.5003 290° West 380 437 32,000  Descending Salt Lake Center
Fri 01:02:32 PM 37.4908 -111.6272 290° West 382 440 32,100 48 Climbing Salt Lake Center
Fri 01:03:34 PM 37.5356 -111.7794 291° West 380 437 32,100 -48 Level Salt Lake Center
Fri 01:04:36 PM 37.5739 -111.9081 290° West 384 442 32,000 -49 Descending Salt Lake Center
Fri 01:05:37 PM 37.6111 -112.0364 290° West 385 443 32,000 49 Level Salt Lake Center
Fri 01:06:39 PM 37.6483 -112.1647 290° West 385 443 32,100 48 Climbing Salt Lake Center
Fri 01:07:41 PM 37.6861 -112.2939 290° West 387 445 32,100 -49 Level Salt Lake Center
Fri 01:08:42 PM 37.7231 -112.4228 289° West 387 445 32,000 -49 Descending Salt Lake Center
Fri 01:09:44 PM 37.7581 -112.5522 290° West 387 445 32,000 48 Level Salt Lake Center
Fri 01:10:46 PM 37.7939 -112.6797 290° West 386 444 32,100  Climbing Salt Lake Center
Fri 01:11:48 PM 37.8294 -112.8069 289° West 384 442 32,000 -49 Descending Salt Lake Center
Fri 01:12:49 PM 37.8636 -112.9333 289° West 382 440 32,000  Level Salt Lake Center
Fri 01:13:51 PM 37.8986 -113.0603 289° West 380 437 32,000 49 Level Salt Lake Center
Fri 01:14:52 PM 37.9397 -113.2150 289° West 382 440 32,100  Climbing Salt Lake Center
Fri 01:15:54 PM 37.9747 -113.3433 289° West 382 440 32,000  Descending Salt Lake Center
Fri 01:16:56 PM 38.0083 -113.4706 286° West 378 435 32,100 49 Climbing Salt Lake Center
Fri 01:17:57 PM 38.0375 -113.6011 283° West 379 436 32,100 -49 Level Salt Lake Center
Fri 01:18:59 PM 38.0619 -113.7311 284° West 376 433 32,000  Descending Salt Lake Center
Fri 01:20:01 PM 38.0886 -113.8636 284° West 379 436 32,100  Climbing Salt Lake Center
Fri 01:23:05 PM 38.1672 -114.2556 284° West 377 434 32,000 -24 Descending Salt Lake Center
Fri 01:24:07 PM 38.1939 -114.3878 284° West 379 436 32,000  Level Salt Lake Center
Fri 01:25:09 PM 38.2192 -114.5197 284° West 379 436 32,000 48 Level Salt Lake Center
Fri 01:26:11 PM 38.2439 -114.6478 284° West 372 428 32,100  Climbing Salt Lake Center
Fri 01:27:12 PM 38.2686 -114.7764 284° West 369 425 32,000 -49 Descending Salt Lake Center
Fri 01:28:14 PM 38.2931 -114.9039 283° West 366 421 32,000  Level Salt Lake Center
Fri 01:29:16 PM 38.3169 -115.0336 283° West 370 426 32,000 48 Level Salt Lake Center
Fri 01:30:18 PM 38.3419 -115.1669 284° West 378 435 32,100  Climbing Salt Lake Center
Fri 01:31:20 PM 38.3681 -115.2989 282° West 379 436 32,000 -49 Descending Salt Lake Center
Fri 01:32:21 PM 38.3933 -115.4511 284° West 380 437 32,000  Level Salt Lake Center
Fri 01:33:23 PM 38.4189 -115.5825 284° West 379 436 32,000 48 Level Salt Lake Center
Fri 01:34:25 PM 38.4436 -115.7133 283° West 380 437 32,100  Climbing Salt Lake Center
Fri 01:35:27 PM 38.4678 -115.8444 282° West 380 437 32,000 -48 Descending Salt Lake Center
Fri 01:36:29 PM 38.4906 -115.9775 283° West 383 441 32,000  Level Salt Lake Center
Fri 01:37:31 PM 38.5189 -116.1353 283° West 381 438 32,000  Level Salt Lake Center
Fri 01:38:33 PM 38.5436 -116.2683 282° West 384 442 32,000  Level Salt Lake Center
Fri 01:39:35 PM 38.5664 -116.4017 283° West 386 444 32,000 49 Level Salt Lake Center
Fri 01:40:36 PM 38.5903 -116.5344 283° West 385 443 32,100 49 Climbing Salt Lake Center
Fri 01:41:38 PM 38.6139 -116.6692 282° West 388 447 32,100 -48 Level Salt Lake Center
Fri 01:42:40 PM 38.6369 -116.8033 283° West 389 448 32,000 -48 Descending Salt Lake Center
Fri 01:43:42 PM 38.6647 -116.9625 282° West 386 444 32,000  Level Salt Lake Center
Fri 01:44:44 PM 38.6875 -117.0958 282° West 386 444 32,000  Level Salt Lake Center
Fri 01:45:46 PM 38.7097 -117.2281 282° West 384 442 32,000  Level Salt Lake Center
Fri 01:46:48 PM 38.7325 -117.3603 282° West 383 441 32,000  Level Salt Lake Center
Fri 01:47:50 PM 38.7542 -117.4919 282° West 381 438 32,000  Level Salt Lake Center
Fri 01:48:52 PM 38.7758 -117.6225 282° West 378 435 32,000  Level Salt Lake Center
Fri 01:49:54 PM 38.8019 -117.7811 282° West 378 435 32,000  Level Salt Lake Center
Fri 01:50:56 PM 38.8231 -117.9119 281° West 378 435 32,000  Level Salt Lake Center
Fri 01:51:58 PM 38.8436 -118.0425 282° West 375 432 32,000  Level Salt Lake Center
Fri 01:53:02 PM 38.8656 -118.1733 281° West 375 432 32,000  Level Salt Lake Center
Fri 01:54:03 PM 38.8861 -118.3050 282° West 376 433 32,000 -49 Level Salt Lake Center
Fri 01:55:05 PM 38.9111 -118.4622 281° West 375 432 31,900 -484 Descending Salt Lake Center
Fri 01:56:07 PM 38.9281 -118.5731 281° West 374 430 31,000 -788 Descending Salt Lake Center
Fri 01:57:22 PM 38.9558 -118.7569 282° West 384 442 30,100 -448 Descending Oakland Center
Fri 01:58:21 PM 38.9769 -118.8872 280° West 379 436 30,000 -403 Descending Oakland Center
Fri 01:59:21 PM 38.9961 -119.0231 282° West 379 436 29,300 -850 Descending Oakland Center
Fri 02:00:21 PM 39.0169 -119.1533 280° West 379 436 28,300 -900 Descending Oakland Center
Fri 02:01:21 PM 39.0356 -119.2892 281° West 379 436 27,500 -893 Descending Oakland Center
Fri 02:02:22 PM 39.0561 -119.4250 281° West 390 449 26,500 -900 Descending Oakland Center
Fri 02:03:21 PM 39.0744 -119.5478 281° West 390 449 25,700 -908 Descending Oakland Center
Fri 02:04:21 PM 39.0947 -119.6864 282° West 390 449 24,700 -1,000 Descending Oakland Center
Fri 02:05:21 PM 39.1169 -119.8225 280° West 390 449 23,700 -1,000 Descending Oakland Center
Fri 02:06:21 PM 39.1350 -119.9589 260° West 390 449 22,700 -950 Descending Oakland Center
Fri 02:07:21 PM 39.1153 -120.0956 263° West 377 434 21,800 -1,350 Descending Oakland Center
Fri 02:08:21 PM 39.1017 -120.2483 260° West 389 448 20,000 -1,884 Descending Oakland Center
Fri 02:09:22 PM 39.0817 -120.3875 260° West 394 453 18,000 -1,800 Descending Oakland Center
Fri 02:10:21 PM 39.0633 -120.5214 261° West 394 453 16,400 -958 Descending Oakland Center
Fri 02:11:21 PM 39.0472 -120.6525 259° West 389 448 16,100 -550 Descending Oakland Center
Fri 02:12:21 PM 39.0267 -120.7836 261° West 383 441 15,300 -1,240 Descending Oakland Center
Fri 02:13:22 PM 39.0100 -120.9119 258° West 377 434 13,600 -1,721 Descending Oakland Center
Fri 02:14:23 PM 38.9892 -121.0403 252° West 372 428 11,800 -1,700 Descending Oakland Center
Fri 02:15:22 PM 38.9578 -121.1631 250° West 366 421 10,200 -915 Descending Oakland Center
Fri 02:16:21 PM 38.9242 -121.2831 251° West 366 421 10,000 -655 Descending Oakland Center
Fri 02:17:21 PM 38.8967 -121.3844 262° West 340 391 8,900 -1,400 Descending Oakland Center
Fri 02:18:21 PM 38.8861 -121.4750 268° West 307 353 7,200 -1,750 Descending Oakland Center
Fri 02:19:21 PM 38.8833 -121.5736 265° West 289 333 5,400 -1,100 Descending Oakland Center
Fri 02:20:21 PM 38.8767 -121.6669 199° South 284 327 5,000 -512 Descending Oakland Center
Fri 02:21:30 PM 38.8000 -121.7000 189° South 267 307 4,300 -884 Descending Northern Cal TRACON
Fri 02:22:30 PM 38.7167 -121.7167 180° South 269 310 3,100 -550 Descending Northern Cal TRACON
Fri 02:23:30 PM 38.6500 -121.7167 180° South 257 296 3,200 100 Climbing Northern Cal TRACON

Login

Don't have an account? Register now (free) for customized features, flight alerts, and more!